sensor_id;sensor_type;location;lat;lon;timestamp;pressure;altitude;pressure_sealevel;temperature;humidity
70521;BME280;58442;52.716;23.560;2023-06-22T00:00:46;101587.74;;;20.97;70.51
70521;BME280;58442;52.716;23.560;2023-06-22T00:02:57;101584.98;;;20.97;70.54
70521;BME280;58442;52.716;23.560;2023-06-22T00:05:00;101592.09;;;20.95;70.64
70521;BME280;58442;52.716;23.560;2023-06-22T00:07:01;101594.45;;;20.93;70.73
70521;BME280;58442;52.716;23.560;2023-06-22T00:09:02;101586.98;;;20.93;70.70
70521;BME280;58442;52.716;23.560;2023-06-22T00:11:12;101585.78;;;20.94;70.70
70521;BME280;58442;52.716;23.560;2023-06-22T00:13:14;101589.33;;;20.95;70.72
70521;BME280;58442;52.716;23.560;2023-06-22T00:15:16;101589.33;;;20.95;70.67
70521;BME280;58442;52.716;23.560;2023-06-22T00:17:17;101592.09;;;20.95;70.66
70521;BME280;58442;52.716;23.560;2023-06-22T00:19:26;101578.28;;;20.95;70.61
70521;BME280;58442;52.716;23.560;2023-06-22T00:21:28;101577.49;;;20.94;70.67
70521;BME280;58442;52.716;23.560;2023-06-22T00:23:30;101573.95;;;20.94;70.67
70521;BME280;58442;52.716;23.560;2023-06-22T00:25:36;101578.28;;;20.95;70.66
70521;BME280;58442;52.716;23.560;2023-06-22T00:27:41;101568.01;;;20.95;70.61
70521;BME280;58442;52.716;23.560;2023-06-22T00:29:42;101569.59;;;20.96;70.59
70521;BME280;58442;52.716;23.560;2023-06-22T00:31:44;101564.84;;;20.97;70.57
70521;BME280;58442;52.716;23.560;2023-06-22T00:33:45;101564.05;;;20.96;70.57
70521;BME280;58442;52.716;23.560;2023-06-22T00:35:56;101564.46;;;20.95;70.52
70521;BME280;58442;52.716;23.560;2023-06-22T00:37:59;101558.52;;;20.93;70.62
70521;BME280;58442;52.716;23.560;2023-06-22T00:40:06;101552.64;;;20.87;70.77
70521;BME280;58442;52.716;23.560;2023-06-22T00:42:11;101557.37;;;20.83;70.97
70521;BME280;58442;52.716;23.560;2023-06-22T00:44:13;101551.05;;;20.79;71.08
70521;BME280;58442;52.716;23.560;2023-06-22T00:46:14;101560.53;;;20.78;71.19
70521;BME280;58442;52.716;23.560;2023-06-22T00:48:16;101554.22;;;20.78;71.21
70521;BME280;58442;52.716;23.560;2023-06-22T00:50:22;101549.88;;;20.76;71.28
70521;BME280;58442;52.716;23.560;2023-06-22T00:52:26;101562.91;;;20.76;71.24
70521;BME280;58442;52.716;23.560;2023-06-22T00:54:31;101556.98;;;20.78;71.26
70521;BME280;58442;52.716;23.560;2023-06-22T00:56:33;101560.53;;;20.78;71.20
70521;BME280;58442;52.716;23.560;2023-06-22T00:58:37;101554.62;;;20.76;71.31
70521;BME280;58442;52.716;23.560;2023-06-22T01:00:42;101558.97;;;20.73;71.39
70521;BME280;58442;52.716;23.560;2023-06-22T01:02:43;101560.13;;;20.72;71.50
70521;BME280;58442;52.716;23.560;2023-06-22T01:04:50;101560.54;;;20.71;71.56
70521;BME280;58442;52.716;23.560;2023-06-22T01:07:00;101553.03;;;20.71;71.48
70521;BME280;58442;52.716;23.560;2023-06-22T01:09:12;101548.71;;;20.74;71.50
70521;BME280;58442;52.716;23.560;2023-06-22T01:11:25;101549.49;;;20.74;71.53
70521;BME280;58442;52.716;23.560;2023-06-22T01:15:45;101538.04;;;20.72;71.62
70521;BME280;58442;52.716;23.560;2023-06-22T01:17:52;101528.20;;;20.68;71.78
70521;BME280;58442;52.716;23.560;2023-06-22T01:19:55;101524.26;;;20.62;71.98
70521;BME280;58442;52.716;23.560;2023-06-22T01:22:06;101521.10;;;20.56;72.23
70521;BME280;58442;52.716;23.560;2023-06-22T01:24:23;101515.59;;;20.53;72.45
70521;BME280;58442;52.716;23.560;2023-06-22T01:28:46;101515.98;;;20.47;72.70
70521;BME280;58442;52.716;23.560;2023-06-22T01:30:49;101510.45;;;20.51;72.64
70521;BME280;58442;52.716;23.560;2023-06-22T01:33:03;101510.05;;;20.56;72.50
70521;BME280;58442;52.716;23.560;2023-06-22T01:35:15;101510.05;;;20.56;72.48
70521;BME280;58442;52.716;23.560;2023-06-22T01:37:18;101512.02;;;20.56;72.55
70521;BME280;58442;52.716;23.560;2023-06-22T01:39:21;101510.86;;;20.53;72.62
70521;BME280;58442;52.716;23.560;2023-06-22T01:41:25;101499.01;;;20.49;72.74
70521;BME280;58442;52.716;23.560;2023-06-22T01:43:30;101497.81;;;20.43;72.94
70521;BME280;58442;52.716;23.560;2023-06-22T01:45:32;101493.47;;;20.42;73.05
70521;BME280;58442;52.716;23.560;2023-06-22T01:47:33;101498.20;;;20.41;73.05
70521;BME280;58442;52.716;23.560;2023-06-22T01:49:35;101484.80;;;20.40;73.08
70521;BME280;58442;52.716;23.560;2023-06-22T01:51:45;101495.44;;;20.38;73.16
70521;BME280;58442;52.716;23.560;2023-06-22T01:53:46;101491.88;;;20.37;73.26
70521;BME280;58442;52.716;23.560;2023-06-22T01:55:48;101490.72;;;20.35;73.28
70521;BME280;58442;52.716;23.560;2023-06-22T01:57:50;101488.36;;;20.33;73.33
70521;BME280;58442;52.716;23.560;2023-06-22T02:00:02;101491.52;;;20.32;73.43
70521;BME280;58442;52.716;23.560;2023-06-22T02:02:09;101489.53;;;20.29;73.58
70521;BME280;58442;52.716;23.560;2023-06-22T02:04:13;101490.34;;;20.26;73.68
70521;BME280;58442;52.716;23.560;2023-06-22T02:06:26;101492.67;;;20.23;73.79
70521;BME280;58442;52.716;23.560;2023-06-22T02:08:38;101489.53;;;20.21;73.86
70521;BME280;58442;52.716;23.560;2023-06-22T02:10:43;101497.45;;;20.19;73.95
70521;BME280;58442;52.716;23.560;2023-06-22T02:12:47;101487.95;;;20.17;74.10
70521;BME280;58442;52.716;23.560;2023-06-22T02:14:50;101484.02;;;20.14;74.18
70521;BME280;58442;52.716;23.560;2023-06-22T02:16:52;101486.39;;;20.12;74.29
70521;BME280;58442;52.716;23.560;2023-06-22T02:18:54;101483.22;;;20.10;74.37
70521;BME280;58442;52.716;23.560;2023-06-22T02:20:55;101485.20;;;20.10;74.45
70521;BME280;58442;52.716;23.560;2023-06-22T02:22:57;101481.64;;;20.09;74.56
70521;BME280;58442;52.716;23.560;2023-06-22T02:24:58;101494.27;;;20.10;74.58
70521;BME280;58442;52.716;23.560;2023-06-22T02:27:08;101494.27;;;20.10;74.59
70521;BME280;58442;52.716;23.560;2023-06-22T02:29:09;101493.11;;;20.11;74.62
70521;BME280;58442;52.716;23.560;2023-06-22T02:31:11;101486.39;;;20.12;74.61
70521;BME280;58442;52.716;23.560;2023-06-22T02:33:12;101489.55;;;20.14;74.56
70521;BME280;58442;52.716;23.560;2023-06-22T02:35:23;101490.34;;;20.18;74.53
70521;BME280;58442;52.716;23.560;2023-06-22T02:37:24;101488.35;;;20.22;74.47
70521;BME280;58442;52.716;23.560;2023-06-22T02:39:26;101499.80;;;20.25;74.40
70521;BME280;58442;52.716;23.560;2023-06-22T02:41:27;101493.47;;;20.24;74.40
70521;BME280;58442;52.716;23.560;2023-06-22T02:43:37;101499.80;;;20.25;74.46
70521;BME280;58442;52.716;23.560;2023-06-22T02:45:39;101493.47;;;20.24;74.51
70521;BME280;58442;52.716;23.560;2023-06-22T02:47:40;101496.65;;;20.26;74.48
70521;BME280;58442;52.716;23.560;2023-06-22T02:49:41;101502.17;;;20.26;74.50
70521;BME280;58442;52.716;23.560;2023-06-22T02:51:52;101495.86;;;20.26;74.51
70521;BME280;58442;52.716;23.560;2023-06-22T02:53:55;101495.86;;;20.26;74.59
70521;BME280;58442;52.716;23.560;2023-06-22T02:55:58;101500.96;;;20.23;74.61
70521;BME280;58442;52.716;23.560;2023-06-22T02:58:02;101495.06;;;20.21;74.67
70521;BME280;58442;52.716;23.560;2023-06-22T03:00:08;101497.82;;;20.21;74.70
70521;BME280;58442;52.716;23.560;2023-06-22T03:02:28;101495.06;;;20.21;74.72
70521;BME280;58442;52.716;23.560;2023-06-22T03:04:29;101499.40;;;20.22;74.75
70521;BME280;58442;52.716;23.560;2023-06-22T03:06:32;101488.35;;;20.22;74.75
70521;BME280;58442;52.716;23.560;2023-06-22T03:08:33;101480.07;;;20.22;74.75
70521;BME280;58442;52.716;23.560;2023-06-22T03:10:43;101480.85;;;20.23;74.77
70521;BME280;58442;52.716;23.560;2023-06-22T03:12:46;101477.30;;;20.22;74.83
70521;BME280;58442;52.716;23.560;2023-06-22T03:14:47;101472.98;;;20.21;74.89
70521;BME280;58442;52.716;23.560;2023-06-22T03:16:49;101480.07;;;20.22;74.90
70521;BME280;58442;52.716;23.560;2023-06-22T03:18:58;101482.83;;;20.22;74.96
70521;BME280;58442;52.716;23.560;2023-06-22T03:20:59;101482.83;;;20.22;75.02
70521;BME280;58442;52.716;23.560;2023-06-22T03:23:03;101482.04;;;20.22;75.05
70521;BME280;58442;52.716;23.560;2023-06-22T03:25:06;101475.34;;;20.23;75.06
70521;BME280;58442;52.716;23.560;2023-06-22T03:27:13;101471.00;;;20.22;75.06
70521;BME280;58442;52.716;23.560;2023-06-22T03:29:14;101477.70;;;20.21;75.13
70521;BME280;58442;52.716;23.560;2023-06-22T03:31:16;101468.26;;;20.18;75.22
70521;BME280;58442;52.716;23.560;2023-06-22T03:33:22;101478.12;;;20.19;75.26
70521;BME280;58442;52.716;23.560;2023-06-22T03:35:27;101484.42;;;20.20;75.34
70521;BME280;58442;52.716;23.560;2023-06-22T03:37:29;101478.50;;;20.21;75.38
70521;BME280;58442;52.716;23.560;2023-06-22T03:39:31;101475.34;;;20.23;75.37
70521;BME280;58442;52.716;23.560;2023-06-22T03:41:32;101471.02;;;20.26;75.33
70521;BME280;58442;52.716;23.560;2023-06-22T03:43:42;101469.02;;;20.30;75.29
70521;BME280;58442;52.716;23.560;2023-06-22T03:45:44;101476.53;;;20.33;75.26
70521;BME280;58442;52.716;23.560;2023-06-22T03:47:46;101477.29;;;20.37;75.20
70521;BME280;58442;52.716;23.560;2023-06-22T03:49:47;101478.48;;;20.43;75.13
70521;BME280;58442;52.716;23.560;2023-06-22T03:51:57;101475.35;;;20.48;75.01
70521;BME280;58442;52.716;23.560;2023-06-22T03:53:58;101478.50;;;20.54;74.95
70521;BME280;58442;52.716;23.560;2023-06-22T03:55:59;101476.49;;;20.58;74.90
70521;BME280;58442;52.716;23.560;2023-06-22T03:58:00;101471.39;;;20.60;74.86
70521;BME280;58442;52.716;23.560;2023-06-22T04:00:12;101474.13;;;20.63;74.85
70521;BME280;58442;52.716;23.560;2023-06-22T04:02:14;101477.27;;;20.65;74.88
70521;BME280;58442;52.716;23.560;2023-06-22T04:04:15;101476.89;;;20.67;74.86
70521;BME280;58442;52.716;23.560;2023-06-22T04:06:16;101478.06;;;20.69;74.82
70521;BME280;58442;52.716;23.560;2023-06-22T04:08:26;101483.97;;;20.71;74.82
70521;BME280;58442;52.716;23.560;2023-06-22T04:10:28;101485.54;;;20.72;74.84
70521;BME280;58442;52.716;23.560;2023-06-22T04:12:29;101490.70;;;20.74;74.82
70521;BME280;58442;52.716;23.560;2023-06-22T04:14:30;101490.29;;;20.75;74.79
70521;BME280;58442;52.716;23.560;2023-06-22T04:16:41;101487.52;;;20.75;74.84
70521;BME280;58442;52.716;23.560;2023-06-22T04:18:42;101492.65;;;20.77;74.86
70521;BME280;58442;52.716;23.560;2023-06-22T04:20:44;101492.23;;;20.79;74.83
70521;BME280;58442;52.716;23.560;2023-06-22T04:22:47;101494.63;;;20.80;74.79
70521;BME280;58442;52.716;23.560;2023-06-22T04:24:56;101501.32;;;20.83;74.74
70521;BME280;58442;52.716;23.560;2023-06-22T04:26:57;101498.15;;;20.84;74.76
70521;BME280;58442;52.716;23.560;2023-06-22T04:29:04;101499.73;;;20.85;74.75
70521;BME280;58442;52.716;23.560;2023-06-22T04:31:06;101500.13;;;20.87;74.74
70521;BME280;58442;52.716;23.560;2023-06-22T04:33:15;101512.35;;;20.90;74.71
70521;BME280;58442;52.716;23.560;2023-06-22T04:35:17;101506.02;;;20.93;74.68
70521;BME280;58442;52.716;23.560;2023-06-22T04:37:18;101509.20;;;20.95;74.62
70521;BME280;58442;52.716;23.560;2023-06-22T04:39:20;101511.92;;;20.98;74.57
70521;BME280;58442;52.716;23.560;2023-06-22T04:41:27;101518.65;;;21.01;74.52
70521;BME280;58442;52.716;23.560;2023-06-22T04:43:29;101524.93;;;21.05;74.48
70521;BME280;58442;52.716;23.560;2023-06-22T04:45:32;101510.70;;;21.07;74.43
70521;BME280;58442;52.716;23.560;2023-06-22T04:47:33;101513.88;;;21.09;74.38
70521;BME280;58442;52.716;23.560;2023-06-22T04:49:42;101515.05;;;21.11;74.34
70521;BME280;58442;52.716;23.560;2023-06-22T04:51:44;101501.22;;;21.11;74.33
70521;BME280;58442;52.716;23.560;2023-06-22T04:53:46;101514.63;;;21.13;74.30
70521;BME280;58442;52.716;23.560;2023-06-22T04:55:47;101510.30;;;21.12;74.32
70521;BME280;58442;52.716;23.560;2023-06-22T04:57:56;101509.89;;;21.13;74.34
70521;BME280;58442;52.716;23.560;2023-06-22T05:00:06;101513.84;;;21.12;74.42
70521;BME280;58442;52.716;23.560;2023-06-22T05:02:13;101508.32;;;21.12;74.44
70521;BME280;58442;52.716;23.560;2023-06-22T05:04:15;101502.80;;;21.12;74.46
70521;BME280;58442;52.716;23.560;2023-06-22T05:06:17;101509.11;;;21.13;74.48
70521;BME280;58442;52.716;23.560;2023-06-22T05:08:19;101506.34;;;21.13;74.54
70521;BME280;58442;52.716;23.560;2023-06-22T05:10:20;101509.11;;;21.16;74.50
70521;BME280;58442;52.716;23.560;2023-06-22T05:12:21;101511.06;;;21.23;74.40
70521;BME280;58442;52.716;23.560;2023-06-22T05:14:32;101513.45;;;21.28;74.34
70521;BME280;58442;52.716;23.560;2023-06-22T05:16:33;101510.64;;;21.32;74.36
70521;BME280;58442;52.716;23.560;2023-06-22T05:18:35;101511.43;;;21.36;74.31
70521;BME280;58442;52.716;23.560;2023-06-22T05:20:37;101509.83;;;21.38;74.22
70521;BME280;58442;52.716;23.560;2023-06-22T05:22:47;101514.16;;;21.39;74.27
70521;BME280;58442;52.716;23.560;2023-06-22T05:24:48;101509.83;;;21.42;74.32
70521;BME280;58442;52.716;23.560;2023-06-22T05:26:49;101509.04;;;21.41;74.34
70521;BME280;58442;52.716;23.560;2023-06-22T05:28:51;101517.71;;;21.43;74.34
70521;BME280;58442;52.716;23.560;2023-06-22T05:31:01;101516.11;;;21.46;74.30
70521;BME280;58442;52.716;23.560;2023-06-22T05:33:03;101516.11;;;21.46;74.35
70521;BME280;58442;52.716;23.560;2023-06-22T05:35:05;101521.64;;;21.46;74.38
70521;BME280;58442;52.716;23.560;2023-06-22T05:37:06;101519.66;;;21.46;74.42
70521;BME280;58442;52.716;23.560;2023-06-22T05:39:19;101516.89;;;21.50;74.37
70521;BME280;58442;52.716;23.560;2023-06-22T05:41:21;101513.70;;;21.55;74.29
70521;BME280;58442;52.716;23.560;2023-06-22T05:43:22;101515.66;;;21.58;74.28
70521;BME280;58442;52.716;23.560;2023-06-22T05:45:23;101511.68;;;21.59;74.25
70521;BME280;58442;52.716;23.560;2023-06-22T05:47:31;101511.28;;;21.61;74.28
70521;BME280;58442;52.716;23.560;2023-06-22T05:49:32;101508.92;;;21.63;74.32
70521;BME280;58442;52.716;23.560;2023-06-22T05:51:33;101515.20;;;21.67;74.30
70521;BME280;58442;52.716;23.560;2023-06-22T05:53:35;101514.41;;;21.70;74.24
70521;BME280;58442;52.716;23.560;2023-06-22T05:55:46;101511.60;;;21.73;74.21
70521;BME280;58442;52.716;23.560;2023-06-22T05:57:47;101515.15;;;21.77;74.23
70521;BME280;58442;52.716;23.560;2023-06-22T05:59:49;101516.30;;;21.83;74.17
70521;BME280;58442;52.716;23.560;2023-06-22T06:01:50;101514.27;;;21.88;74.11
70521;BME280;58442;52.716;23.560;2023-06-22T06:04:01;101511.49;;;21.91;74.06
70521;BME280;58442;52.716;23.560;2023-06-22T06:06:02;101519.76;;;21.95;74.08
70521;BME280;58442;52.716;23.560;2023-06-22T06:08:05;101518.18;;;21.97;74.07
70521;BME280;58442;52.716;23.560;2023-06-22T06:10:07;101516.56;;;22.00;73.95
70521;BME280;58442;52.716;23.560;2023-06-22T06:12:15;101523.26;;;22.02;74.12
70521;BME280;58442;52.716;23.560;2023-06-22T06:14:16;101518.13;;;22.04;74.13
70521;BME280;58442;52.716;23.560;2023-06-22T06:16:18;101525.22;;;22.09;74.12
70521;BME280;58442;52.716;23.560;2023-06-22T06:18:19;101525.98;;;22.17;73.99
70521;BME280;58442;52.716;23.560;2023-06-22T06:20:31;101525.92;;;22.24;73.85
70521;BME280;58442;52.716;23.560;2023-06-22T06:22:33;101529.41;;;22.31;73.72
70521;BME280;58442;52.716;23.560;2023-06-22T06:24:34;101530.13;;;22.39;73.57
70521;BME280;58442;52.716;23.560;2023-06-22T06:26:35;101536.40;;;22.47;73.38
70521;BME280;58442;52.716;23.560;2023-06-22T06:28:45;101537.54;;;22.53;73.21
70521;BME280;58442;52.716;23.560;2023-06-22T06:30:47;101527.60;;;22.55;73.06
70521;BME280;58442;52.716;23.560;2023-06-22T06:32:48;101529.96;;;22.57;72.99
70521;BME280;58442;52.716;23.560;2023-06-22T06:34:50;101530.36;;;22.59;72.90
70521;BME280;58442;52.716;23.560;2023-06-22T06:37:00;101524.77;;;22.62;72.79
70521;BME280;58442;52.716;23.560;2023-06-22T06:39:01;101522.34;;;22.68;72.60
70521;BME280;58442;52.716;23.560;2023-06-22T06:41:04;101526.66;;;22.73;72.43
70521;BME280;58442;52.716;23.560;2023-06-22T06:43:06;101521.06;;;22.76;72.36
70521;BME280;58442;52.716;23.560;2023-06-22T06:45:17;101530.09;;;22.84;72.26
70521;BME280;58442;52.716;23.560;2023-06-22T06:47:19;101527.32;;;22.87;72.16
70521;BME280;58442;52.716;23.560;2023-06-22T06:49:20;101528.05;;;22.91;72.04
70521;BME280;58442;52.716;23.560;2023-06-22T06:51:21;101524.10;;;22.92;72.00
70521;BME280;58442;52.716;23.560;2023-06-22T06:53:29;101519.70;;;22.95;71.89
70521;BME280;58442;52.716;23.560;2023-06-22T06:55:31;101515.73;;;22.96;71.85
70521;BME280;58442;52.716;23.560;2023-06-22T06:57:34;101525.61;;;22.97;71.81
70521;BME280;58442;52.716;23.560;2023-06-22T06:59:35;101521.25;;;23.00;71.78
70521;BME280;58442;52.716;23.560;2023-06-22T07:01:44;101517.64;;;23.03;71.69
70521;BME280;58442;52.716;23.560;2023-06-22T07:03:46;101517.21;;;23.04;71.66
70521;BME280;58442;52.716;23.560;2023-06-22T07:05:47;101517.21;;;23.04;71.66
70521;BME280;58442;52.716;23.560;2023-06-22T07:07:48;101516.79;;;23.06;71.62
70521;BME280;58442;52.716;23.560;2023-06-22T07:09:59;101511.25;;;23.06;71.63
70521;BME280;58442;52.716;23.560;2023-06-22T07:12:01;101515.23;;;23.05;71.70
70521;BME280;58442;52.716;23.560;2023-06-22T07:14:02;101519.99;;;23.04;71.76
70521;BME280;58442;52.716;23.560;2023-06-22T07:16:04;101521.56;;;23.05;71.77
70521;BME280;58442;52.716;23.560;2023-06-22T07:18:14;101536.20;;;23.06;71.77
70521;BME280;58442;52.716;23.560;2023-06-22T07:20:15;101530.66;;;23.06;71.81
70521;BME280;58442;52.716;23.560;2023-06-22T07:22:16;101533.43;;;23.06;71.86
70521;BME280;58442;52.716;23.560;2023-06-22T07:24:18;101534.63;;;23.05;71.85
70521;BME280;58442;52.716;23.560;2023-06-22T07:26:28;101534.70;;;23.01;71.97
70521;BME280;58442;52.716;23.560;2023-06-22T07:28:30;101542.65;;;22.99;72.12
70521;BME280;58442;52.716;23.560;2023-06-22T07:30:38;101543.43;;;23.00;72.14
70521;BME280;58442;52.716;23.560;2023-06-22T07:32:40;101528.39;;;22.97;71.96
70521;BME280;58442;52.716;23.560;2023-06-22T07:34:45;101522.12;;;22.93;72.26
70521;BME280;58442;52.716;23.560;2023-06-22T07:36:46;101520.62;;;22.81;72.65
70521;BME280;58442;52.716;23.560;2023-06-22T07:38:48;101526.67;;;22.69;73.04
70521;BME280;58442;52.716;23.560;2023-06-22T07:40:49;101533.12;;;22.59;73.36
70521;BME280;58442;52.716;23.560;2023-06-22T07:42:58;101532.80;;;22.50;73.65
70521;BME280;58442;52.716;23.560;2023-06-22T07:44:59;101515.50;;;22.38;74.00
70521;BME280;58442;52.716;23.560;2023-06-22T07:47:01;101514.37;;;22.32;74.28
70521;BME280;58442;52.716;23.560;2023-06-22T07:49:02;101512.40;;;22.29;74.45
70521;BME280;58442;52.716;23.560;2023-06-22T07:51:14;101505.29;;;22.28;74.51
70521;BME280;58442;52.716;23.560;2023-06-22T07:53:15;101508.06;;;22.28;74.61
70521;BME280;58442;52.716;23.560;2023-06-22T07:55:17;101506.48;;;22.31;74.59
70521;BME280;58442;52.716;23.560;2023-06-22T07:57:19;101512.34;;;22.36;74.49
70521;BME280;58442;52.716;23.560;2023-06-22T07:59:29;101518.23;;;22.42;74.37
70521;BME280;58442;52.716;23.560;2023-06-22T08:01:30;101524.12;;;22.48;74.35
70521;BME280;58442;52.716;23.560;2023-06-22T08:03:32;101512.26;;;22.47;74.39
70521;BME280;58442;52.716;23.560;2023-06-22T08:05:33;101511.03;;;22.52;74.45
70521;BME280;58442;52.716;23.560;2023-06-22T08:07:45;101512.16;;;22.58;74.38
70521;BME280;58442;52.716;23.560;2023-06-22T08:09:47;101510.49;;;22.64;74.39
70521;BME280;58442;52.716;23.560;2023-06-22T08:11:50;101502.94;;;22.68;74.32
70521;BME280;58442;52.716;23.560;2023-06-22T08:13:51;101507.64;;;22.71;74.30
70521;BME280;58442;52.716;23.560;2023-06-22T08:15:59;101499.74;;;22.70;74.47
70521;BME280;58442;52.716;23.560;2023-06-22T08:18:01;101500.16;;;22.68;74.71
70521;BME280;58442;52.716;23.560;2023-06-22T08:20:03;101504.84;;;22.75;74.75
70521;BME280;58442;52.716;23.560;2023-06-22T08:22:13;101505.92;;;22.88;74.64
70521;BME280;58442;52.716;23.560;2023-06-22T08:24:14;101506.00;;;23.15;74.16
70521;BME280;58442;52.716;23.560;2023-06-22T08:26:16;101498.55;;;23.39;73.85
70521;BME280;58442;52.716;23.560;2023-06-22T08:28:17;101500.66;;;23.62;73.54
70521;BME280;58442;52.716;23.560;2023-06-22T08:30:18;101503.48;;;23.85;73.24
70521;BME280;58442;52.716;23.560;2023-06-22T08:32:29;101497.58;;;24.07;72.98
70521;BME280;58442;52.716;23.560;2023-06-22T08:34:30;101505.55;;;24.05;73.23
70521;BME280;58442;52.716;23.560;2023-06-22T08:36:31;101509.90;;;24.06;73.29
70521;BME280;58442;52.716;23.560;2023-06-22T08:38:42;101507.79;;;24.13;73.21
70521;BME280;58442;52.716;23.560;2023-06-22T08:40:43;101508.19;;;24.39;72.78
70521;BME280;58442;52.716;23.560;2023-06-22T08:42:46;101512.48;;;24.43;72.83
70521;BME280;58442;52.716;23.560;2023-06-22T08:44:47;101510.93;;;24.62;72.50
70521;BME280;58442;52.716;23.560;2023-06-22T08:46:49;101507.23;;;24.69;72.32
70521;BME280;58442;52.716;23.560;2023-06-22T08:48:59;101503.78;;;24.85;71.97
70521;BME280;58442;52.716;23.560;2023-06-22T08:51:00;101501.69;;;24.89;71.84
70521;BME280;58442;52.716;23.560;2023-06-22T08:53:01;101497.63;;;24.93;71.87
70521;BME280;58442;52.716;23.560;2023-06-22T08:55:03;101505.05;;;25.00;71.81
70521;BME280;58442;52.716;23.560;2023-06-22T08:57:13;101501.11;;;24.97;71.95
70521;BME280;58442;52.716;23.560;2023-06-22T08:59:14;101506.18;;;25.02;71.74
70521;BME280;58442;52.716;23.560;2023-06-22T09:01:15;101510.38;;;24.91;72.10
70521;BME280;58442;52.716;23.560;2023-06-22T09:03:17;101514.18;;;25.00;71.84
70521;BME280;58442;52.716;23.560;2023-06-22T09:05:28;101517.05;;;25.17;71.34
70521;BME280;58442;52.716;23.560;2023-06-22T09:07:29;101516.05;;;25.27;71.12
70521;BME280;58442;52.716;23.560;2023-06-22T09:09:31;101517.62;;;25.28;71.27
70521;BME280;58442;52.716;23.560;2023-06-22T09:11:32;101506.49;;;25.28;71.33
70521;BME280;58442;52.716;23.560;2023-06-22T09:13:43;101516.37;;;25.49;70.66
70521;BME280;58442;52.716;23.560;2023-06-22T09:15:47;101517.88;;;25.53;70.51
70521;BME280;58442;52.716;23.560;2023-06-22T09:17:48;101513.16;;;25.50;70.63
70521;BME280;58442;52.716;23.560;2023-06-22T09:19:50;101501.52;;;25.55;70.55
70521;BME280;58442;52.716;23.560;2023-06-22T09:21:58;101504.29;;;25.55;70.52
70521;BME280;58442;52.716;23.560;2023-06-22T09:24:00;101508.48;;;25.63;70.48
70521;BME280;58442;52.716;23.560;2023-06-22T09:26:01;101497.21;;;25.87;70.15
70521;BME280;58442;52.716;23.560;2023-06-22T09:28:04;101497.73;;;26.14;69.48
70521;BME280;58442;52.716;23.560;2023-06-22T09:30:12;101486.58;;;26.31;69.14
70521;BME280;58442;52.716;23.560;2023-06-22T09:32:14;101483.12;;;26.43;68.85
70521;BME280;58442;52.716;23.560;2023-06-22T09:34:16;101492.51;;;26.49;68.72
70521;BME280;58442;52.716;23.560;2023-06-22T09:36:21;101483.40;;;26.61;68.49
70521;BME280;58442;52.716;23.560;2023-06-22T09:38:27;101480.58;;;26.78;68.16
70521;BME280;58442;52.716;23.560;2023-06-22T09:40:28;101465.32;;;26.95;67.85
70521;BME280;58442;52.716;23.560;2023-06-22T09:42:30;101458.80;;;27.14;67.39
70521;BME280;58442;52.716;23.560;2023-06-22T09:44:31;101458.70;;;27.31;67.00
70521;BME280;58442;52.716;23.560;2023-06-22T09:46:42;101464.29;;;27.43;66.70
70521;BME280;58442;52.716;23.560;2023-06-22T09:48:43;101456.82;;;27.53;66.59
70521;BME280;58442;52.716;23.560;2023-06-22T09:50:45;101453.03;;;27.60;66.34
70521;BME280;58442;52.716;23.560;2023-06-22T09:52:46;101454.81;;;27.66;66.31
70521;BME280;58442;52.716;23.560;2023-06-22T09:54:56;101457.59;;;27.79;66.12
70521;BME280;58442;52.716;23.560;2023-06-22T09:57:01;101459.95;;;27.80;66.28
70521;BME280;58442;52.716;23.560;2023-06-22T09:59:03;101448.77;;;27.55;66.89
70521;BME280;58442;52.716;23.560;2023-06-22T10:01:04;101443.54;;;27.32;67.32
70521;BME280;58442;52.716;23.560;2023-06-22T10:03:11;101449.41;;;27.08;67.78
70521;BME280;58442;52.716;23.560;2023-06-22T10:05:13;101452.27;;;26.92;68.10
70521;BME280;58442;52.716;23.560;2023-06-22T10:07:14;101452.47;;;26.85;68.04
70521;BME280;58442;52.716;23.560;2023-06-22T10:09:16;101459.04;;;26.78;67.97
70521;BME280;58442;52.716;23.560;2023-06-22T10:11:26;101450.22;;;26.80;67.81
70521;BME280;58442;52.716;23.560;2023-06-22T10:13:32;101460.84;;;26.85;67.65
70521;BME280;58442;52.716;23.560;2023-06-22T10:15:33;101461.59;;;26.72;68.09
70521;BME280;58442;52.716;23.560;2023-06-22T10:17:34;101455.88;;;26.63;68.30
70521;BME280;58442;52.716;23.560;2023-06-22T10:19:40;101449.27;;;26.57;68.43
70521;BME280;58442;52.716;23.560;2023-06-22T10:21:42;101446.50;;;26.41;68.79
70521;BME280;58442;52.716;23.560;2023-06-22T10:23:43;101433.89;;;26.20;69.30
70521;BME280;58442;52.716;23.560;2023-06-22T10:25:45;101439.40;;;26.07;69.67
70521;BME280;58442;52.716;23.560;2023-06-22T10:27:55;101456.66;;;26.02;69.88
70521;BME280;58442;52.716;23.560;2023-06-22T10:29:56;101465.43;;;26.01;70.00
70521;BME280;58442;52.716;23.560;2023-06-22T10:31:57;101469.89;;;25.98;70.05
70521;BME280;58442;52.716;23.560;2023-06-22T10:34:02;101475.91;;;25.97;70.06
70521;BME280;58442;52.716;23.560;2023-06-22T10:36:10;101494.70;;;25.93;70.03
70521;BME280;58442;52.716;23.560;2023-06-22T10:38:12;101510.19;;;25.77;70.01
70521;BME280;58442;52.716;23.560;2023-06-22T10:40:16;101503.23;;;25.49;70.31
70521;BME280;58442;52.716;23.560;2023-06-22T10:42:19;101492.38;;;25.19;70.60
70521;BME280;58442;52.716;23.560;2023-06-22T10:44:24;101483.01;;;24.89;70.94